createdAt,value
2023-05-04T00:00:05.988Z,4.30
2023-05-04T00:01:05.906Z,4.10
2023-05-04T00:02:06.207Z,4.10
2023-05-04T00:03:06.648Z,4.00
2023-05-04T00:04:06.942Z,6.50
2023-05-04T00:05:07.045Z,4.30
2023-05-04T00:06:07.259Z,4.40
2023-05-04T00:07:07.565Z,4.30
2023-05-04T00:08:08.297Z,4.40
2023-05-04T00:09:08.185Z,4.40
2023-05-04T00:10:08.577Z,4.10
2023-05-04T00:11:08.807Z,4.10
2023-05-04T00:12:09.037Z,4.20
2023-05-04T00:13:09.451Z,4.20
2023-05-04T00:14:09.629Z,3.80
2023-05-04T00:15:09.900Z,3.90
2023-05-04T00:16:11.005Z,3.80
2023-05-04T00:17:10.519Z,3.70
2023-05-04T00:18:10.756Z,3.40
2023-05-04T00:19:11.149Z,3.40
2023-05-04T00:20:11.501Z,3.40
2023-05-04T00:21:11.718Z,3.40
2023-05-04T00:22:12.152Z,3.30
2023-05-04T00:23:12.270Z,3.40
2023-05-04T00:24:12.712Z,3.30
2023-05-04T00:25:12.758Z,3.20
2023-05-04T00:26:12.976Z,3.50
2023-05-04T00:27:13.382Z,3.30
2023-05-04T00:28:13.708Z,3.20
2023-05-04T00:29:13.968Z,3.40
2023-05-04T00:30:14.275Z,3.30
2023-05-04T00:31:14.497Z,3.60
2023-05-04T00:32:14.836Z,3.50
2023-05-04T00:33:15.143Z,3.60
2023-05-04T00:34:15.505Z,3.50
2023-05-04T00:35:15.785Z,3.10
2023-05-04T00:36:16.021Z,3.30
2023-05-04T00:37:16.425Z,3.20
2023-05-04T00:38:16.875Z,3.50
2023-05-04T00:39:17.862Z,3.40
2023-05-04T00:40:17.299Z,3.30
2023-05-04T00:41:17.513Z,3.20
2023-05-04T00:42:17.756Z,3.00
2023-05-04T00:43:18.040Z,3.20
2023-05-04T00:44:18.396Z,3.10
2023-05-04T00:45:18.699Z,3.30
2023-05-04T00:46:19.057Z,3.20
2023-05-04T00:47:19.324Z,3.30
2023-05-04T00:48:19.541Z,3.30
2023-05-04T00:49:19.871Z,3.30
2023-05-04T00:50:20.188Z,3.40
2023-05-04T00:51:20.623Z,3.30
2023-05-04T00:52:20.816Z,3.40
2023-05-04T00:53:21.045Z,3.40
2023-05-04T00:54:21.338Z,3.60
2023-05-04T00:55:21.677Z,3.50
2023-05-04T00:56:21.844Z,3.50
2023-05-04T00:57:22.100Z,3.40
2023-05-04T00:58:22.358Z,3.40
2023-05-04T00:59:22.768Z,3.70
2023-05-04T01:00:22.936Z,3.40
2023-05-04T01:01:23.373Z,3.50
2023-05-04T01:02:23.648Z,3.90
2023-05-04T01:03:23.981Z,4.00
2023-05-04T01:04:24.240Z,4.40
2023-05-04T01:05:24.585Z,4.70
2023-05-04T01:06:24.817Z,4.40
2023-05-04T01:07:25.170Z,4.50
2023-05-04T01:08:25.434Z,7.30
2023-05-04T01:09:25.722Z,8.00
2023-05-04T01:10:26.850Z,4.20
2023-05-04T01:11:26.372Z,4.30
2023-05-04T01:12:26.595Z,4.20
2023-05-04T01:13:27.010Z,4.10
2023-05-04T01:14:27.073Z,4.10
2023-05-04T01:15:27.402Z,4.30
2023-05-04T01:16:27.861Z,4.50
2023-05-04T01:17:27.966Z,4.30
2023-05-04T01:18:28.206Z,4.60
2023-05-04T01:19:28.541Z,4.40
2023-05-04T01:20:28.801Z,4.30
2023-05-04T01:21:29.255Z,4.60
2023-05-04T01:22:29.508Z,4.60
2023-05-04T01:23:29.795Z,4.40
2023-05-04T01:24:30.034Z,4.30
2023-05-04T01:25:30.355Z,4.20
2023-05-04T01:26:30.752Z,4.40
2023-05-04T01:27:30.972Z,4.30
2023-05-04T01:28:31.246Z,4.30
2023-05-04T01:29:31.484Z,4.40
2023-05-04T01:30:31.734Z,4.40
2023-05-04T01:31:32.018Z,4.30
2023-05-04T01:32:32.335Z,4.30
2023-05-04T01:33:32.643Z,4.30
2023-05-04T01:34:32.909Z,4.20
2023-05-04T01:35:33.128Z,4.20
2023-05-04T01:36:33.492Z,4.10
2023-05-04T01:37:33.794Z,4.20
2023-05-04T01:38:34.027Z,4.10
2023-05-04T01:39:34.196Z,4.30
2023-05-04T01:40:34.457Z,4.30
2023-05-04T01:41:34.729Z,4.30
2023-05-04T01:42:35.027Z,4.20
2023-05-04T01:43:35.248Z,4.40
2023-05-04T01:44:35.446Z,4.10
2023-05-04T01:45:35.815Z,4.60
2023-05-04T01:46:36.185Z,4.30
2023-05-04T01:47:36.389Z,4.30
2023-05-04T01:48:36.584Z,4.30
2023-05-04T01:49:36.883Z,4.30
2023-05-04T01:50:37.222Z,4.70
2023-05-04T01:51:37.434Z,4.60
2023-05-04T01:52:37.750Z,4.50
2023-05-04T01:53:38.038Z,4.40
2023-05-04T01:54:38.276Z,4.40
2023-05-04T01:55:38.594Z,4.20
2023-05-04T01:56:38.796Z,4.30
2023-05-04T01:57:39.075Z,4.50
2023-05-04T01:58:39.236Z,4.20
2023-05-04T01:59:39.549Z,4.40
2023-05-04T02:00:39.894Z,4.50
2023-05-04T02:01:40.206Z,4.50
2023-05-04T02:02:40.455Z,4.30
2023-05-04T02:03:40.922Z,4.50
2023-05-04T02:04:40.851Z,4.60
2023-05-04T02:05:41.139Z,4.60
2023-05-04T02:06:41.345Z,4.60
2023-05-04T02:07:41.588Z,4.70
2023-05-04T02:08:42.303Z,4.40
2023-05-04T02:09:42.179Z,4.70
2023-05-04T02:10:42.413Z,4.50
2023-05-04T02:11:42.734Z,4.20
2023-05-04T02:12:43.270Z,4.40
2023-05-04T02:13:43.311Z,4.40
2023-05-04T02:14:43.624Z,4.60
2023-05-04T02:15:43.904Z,4.50
2023-05-04T02:16:44.091Z,4.40
2023-05-04T02:17:44.455Z,4.40
2023-05-04T02:18:44.712Z,4.20
2023-05-04T02:19:45.061Z,4.40
2023-05-04T02:20:45.323Z,4.00
2023-05-04T02:21:45.579Z,4.70
2023-05-04T02:22:45.908Z,4.30
2023-05-04T02:23:46.179Z,4.30
2023-05-04T02:24:46.457Z,4.50
2023-05-04T02:25:46.876Z,4.40
2023-05-04T02:26:47.255Z,4.20
2023-05-04T02:27:47.496Z,4.80
2023-05-04T02:28:47.810Z,4.70
2023-05-04T02:29:48.008Z,4.50
2023-05-04T02:30:48.304Z,4.50
2023-05-04T02:31:48.633Z,4.50
2023-05-04T02:32:48.932Z,4.60
2023-05-04T02:33:49.168Z,4.60
2023-05-04T02:34:49.448Z,4.50
2023-05-04T02:35:49.764Z,4.50
2023-05-04T02:36:50.039Z,4.70
2023-05-04T02:37:50.284Z,4.70
2023-05-04T02:38:50.463Z,4.80
2023-05-04T02:39:50.957Z,4.60
2023-05-04T02:40:51.154Z,4.70
2023-05-04T02:41:51.532Z,4.70
2023-05-04T02:42:53.229Z,4.90
2023-05-04T02:43:52.075Z,4.80
2023-05-04T02:44:52.387Z,4.70
2023-05-04T02:45:52.863Z,4.70
2023-05-04T02:46:53.049Z,4.80
2023-05-04T02:47:53.306Z,5.00
2023-05-04T02:48:53.566Z,4.80
2023-05-04T02:49:53.783Z,4.90
2023-05-04T02:50:54.209Z,5.10
2023-05-04T02:51:54.438Z,4.70
2023-05-04T02:52:54.691Z,5.00
2023-05-04T02:53:54.989Z,5.00
2023-05-04T02:54:55.231Z,5.00
2023-05-04T02:55:55.706Z,5.10
2023-05-04T02:56:55.884Z,4.90
2023-05-04T02:57:56.036Z,5.10
2023-05-04T02:58:56.439Z,5.40
2023-05-04T02:59:56.616Z,5.10
2023-05-04T03:00:56.977Z,5.10
2023-05-04T03:01:57.305Z,5.30
2023-05-04T03:02:57.626Z,5.40
2023-05-04T03:03:57.930Z,5.00
2023-05-04T03:04:58.163Z,5.10
2023-05-04T03:05:58.535Z,5.00
2023-05-04T03:06:58.734Z,5.10
2023-05-04T03:07:59.050Z,5.10
2023-05-04T03:08:59.422Z,5.50
2023-05-04T03:09:59.690Z,5.30
2023-05-04T03:11:00.013Z,5.30
2023-05-04T03:12:00.488Z,5.60
2023-05-04T03:13:00.624Z,5.30
2023-05-04T03:14:01.032Z,5.40
2023-05-04T03:15:01.137Z,5.60
2023-05-04T03:16:01.498Z,5.30
2023-05-04T03:17:01.742Z,5.30
2023-05-04T03:18:02.230Z,5.30
2023-05-04T03:19:02.366Z,5.90
2023-05-04T03:20:02.927Z,5.50
2023-05-04T03:21:03.410Z,5.60
2023-05-04T03:22:03.236Z,5.60
2023-05-04T03:23:03.496Z,6.30
2023-05-04T03:24:03.837Z,6.10
2023-05-04T03:25:03.983Z,5.40
2023-05-04T03:26:04.325Z,6.70
2023-05-04T03:27:04.685Z,7.90
2023-05-04T03:28:05.003Z,5.90
2023-05-04T03:29:05.213Z,5.80
2023-05-04T03:30:05.798Z,5.70
2023-05-04T03:31:05.835Z,5.50
2023-05-04T03:32:06.125Z,5.80
2023-05-04T03:33:07.287Z,5.60
2023-05-04T03:34:06.644Z,5.50
2023-05-04T03:35:07.012Z,5.90
2023-05-04T03:36:07.367Z,5.60
2023-05-04T03:37:07.571Z,5.70
2023-05-04T03:38:07.896Z,5.80
2023-05-04T03:39:08.191Z,5.60
2023-05-04T03:40:08.556Z,5.30
2023-05-04T03:41:08.930Z,5.30
2023-05-04T03:42:09.127Z,5.50
2023-05-04T03:43:09.422Z,5.00
2023-05-04T03:44:09.608Z,5.40
2023-05-04T03:45:09.864Z,5.30
2023-05-04T03:46:10.107Z,5.50
2023-05-04T03:47:10.356Z,5.40
2023-05-04T03:48:10.756Z,5.40
2023-05-04T03:49:10.877Z,5.50
2023-05-04T03:50:11.285Z,5.50
2023-05-04T03:51:11.418Z,5.30
2023-05-04T03:52:11.805Z,5.70
2023-05-04T03:53:12.075Z,5.80
2023-05-04T03:54:12.250Z,5.80
2023-05-04T03:55:12.630Z,5.60
2023-05-04T03:56:12.839Z,5.50
2023-05-04T03:57:13.174Z,5.80
2023-05-04T03:58:13.647Z,5.70
2023-05-04T03:59:13.815Z,5.60
2023-05-04T04:00:14.203Z,5.50
2023-05-04T04:01:14.416Z,5.70
2023-05-04T04:02:14.783Z,5.60
2023-05-04T04:03:15.343Z,5.60
2023-05-04T04:04:15.354Z,5.40
2023-05-04T04:05:15.516Z,5.30
2023-05-04T04:06:15.855Z,6.90
2023-05-04T04:07:16.144Z,5.50
2023-05-04T04:08:16.462Z,5.60
2023-05-04T04:09:16.666Z,5.40
2023-05-04T04:10:17.088Z,5.80
2023-05-04T04:11:17.311Z,5.50
2023-05-04T04:12:17.537Z,5.50
2023-05-04T04:13:18.002Z,5.60
2023-05-04T04:14:18.174Z,5.60
2023-05-04T04:15:18.511Z,5.90
2023-05-04T04:16:18.940Z,5.90
2023-05-04T04:17:20.106Z,5.70
2023-05-04T04:18:19.836Z,5.90
2023-05-04T04:19:19.626Z,6.00
2023-05-04T04:20:20.705Z,6.20
2023-05-04T04:21:20.293Z,5.90
2023-05-04T04:22:20.637Z,5.90
2023-05-04T04:23:20.844Z,6.20
2023-05-04T04:24:21.603Z,7.80
2023-05-04T04:25:21.471Z,6.30
2023-05-04T04:26:21.831Z,6.00
2023-05-04T04:27:22.118Z,5.80
2023-05-04T04:28:22.359Z,5.90
2023-05-04T04:29:22.583Z,5.80
2023-05-04T04:30:22.913Z,7.30
2023-05-04T04:31:23.366Z,6.30
2023-05-04T04:32:23.609Z,5.60
2023-05-04T04:33:23.809Z,5.80
2023-05-04T04:34:24.173Z,5.80
2023-05-04T04:35:24.394Z,5.90
2023-05-04T04:36:24.815Z,6.20
2023-05-04T04:37:25.015Z,7.40
2023-05-04T04:38:25.225Z,5.80
2023-05-04T04:39:25.698Z,6.50
2023-05-04T04:40:25.945Z,5.90
2023-05-04T04:41:26.202Z,5.80
2023-05-04T04:42:26.398Z,5.80
2023-05-04T04:43:26.712Z,6.00
2023-05-04T04:44:27.049Z,6.10
2023-05-04T04:45:27.264Z,6.20
2023-05-04T04:46:27.682Z,6.10
2023-05-04T04:47:27.940Z,6.30
2023-05-04T04:48:28.154Z,6.10
2023-05-04T04:49:28.398Z,6.00
2023-05-04T04:50:29.377Z,6.80
2023-05-04T04:51:29.010Z,6.20
2023-05-04T04:52:29.242Z,5.90
2023-05-04T04:53:29.430Z,5.80
2023-05-04T04:54:29.761Z,5.70
2023-05-04T04:55:30.134Z,5.80
2023-05-04T04:56:30.355Z,5.80
2023-05-04T04:57:31.844Z,6.50
2023-05-04T04:58:30.925Z,5.70
2023-05-04T04:59:31.224Z,6.50
2023-05-04T05:00:31.452Z,6.60
2023-05-04T05:01:31.724Z,6.10
2023-05-04T05:02:31.934Z,6.00
2023-05-04T05:03:32.278Z,5.70
2023-05-04T05:04:32.535Z,6.20
2023-05-04T05:05:32.732Z,6.10
2023-05-04T05:06:33.132Z,6.50
2023-05-04T05:07:33.429Z,6.80
2023-05-04T05:08:33.601Z,6.50
2023-05-04T05:09:33.905Z,7.00
2023-05-04T05:10:34.252Z,7.10
2023-05-04T05:11:34.492Z,6.80
2023-05-04T05:12:34.879Z,6.50
2023-05-04T05:13:35.617Z,6.30
2023-05-04T05:14:36.177Z,6.80
2023-05-04T05:15:35.681Z,6.50
2023-05-04T05:16:36.069Z,7.00
2023-05-04T05:17:36.360Z,6.50
2023-05-04T05:18:36.577Z,6.40
2023-05-04T05:19:36.946Z,6.70
2023-05-04T05:20:38.062Z,6.80
2023-05-04T05:21:38.436Z,6.20
2023-05-04T05:22:37.929Z,6.10
2023-05-04T05:23:38.133Z,6.80
2023-05-04T05:24:38.322Z,6.00
2023-05-04T05:25:39.391Z,7.00
2023-05-04T05:26:40.009Z,8.30
2023-05-04T05:27:39.263Z,6.30
2023-05-04T05:28:39.506Z,6.20
2023-05-04T05:29:39.755Z,6.60
2023-05-04T05:30:39.995Z,6.20
2023-05-04T05:31:40.275Z,7.10
2023-05-04T05:32:41.032Z,7.10
2023-05-04T05:33:40.929Z,6.90
2023-05-04T05:34:41.160Z,6.50
2023-05-04T05:35:41.536Z,6.60
2023-05-04T05:36:41.834Z,6.20
2023-05-04T05:37:42.056Z,9.50
2023-05-04T05:38:42.269Z,6.60
2023-05-04T05:39:42.610Z,6.10
2023-05-04T05:40:43.061Z,6.30
2023-05-04T05:41:43.081Z,6.20
2023-05-04T05:42:43.484Z,6.50
2023-05-04T05:43:43.678Z,7.20
2023-05-04T05:44:43.982Z,6.80
2023-05-04T05:45:44.375Z,7.10
2023-05-04T05:46:44.644Z,7.00
2023-05-04T05:47:44.976Z,7.30
2023-05-04T05:48:45.098Z,7.70
2023-05-04T05:49:46.447Z,7.40
2023-05-04T05:50:45.778Z,6.70
2023-05-04T05:51:45.981Z,7.00
2023-05-04T05:52:46.339Z,7.20
2023-05-04T05:53:46.610Z,6.90
2023-05-04T05:54:46.881Z,7.10
2023-05-04T05:55:47.493Z,7.10
2023-05-04T05:56:47.377Z,7.10
2023-05-04T05:57:47.561Z,8.10
2023-05-04T05:58:47.922Z,8.60
2023-05-04T05:59:48.241Z,7.20
2023-05-04T06:00:48.628Z,6.80
2023-05-04T06:01:48.791Z,6.60
2023-05-04T06:02:49.189Z,7.20
2023-05-04T06:03:49.679Z,6.70
2023-05-04T06:04:49.870Z,6.90
2023-05-04T06:05:49.934Z,7.20
2023-05-04T06:06:50.256Z,7.10
2023-05-04T06:07:50.664Z,7.30
2023-05-04T06:08:50.872Z,7.70
2023-05-04T06:09:52.103Z,8.50
2023-05-04T06:10:51.633Z,7.50
2023-05-04T06:11:52.965Z,9.80
2023-05-04T06:12:52.055Z,8.20
2023-05-04T06:13:52.339Z,7.30
2023-05-04T06:14:52.537Z,6.80
2023-05-04T06:15:53.019Z,6.90
2023-05-04T06:16:53.178Z,7.20
2023-05-04T06:17:53.585Z,7.00
2023-05-04T06:18:53.754Z,7.10
2023-05-04T06:19:54.143Z,6.90
2023-05-04T06:20:54.376Z,6.90
2023-05-04T06:21:54.747Z,6.90
2023-05-04T06:22:55.049Z,6.90
2023-05-04T06:23:55.170Z,7.20
2023-05-04T06:24:58.983Z,7.10
2023-05-04T06:25:56.796Z,7.20
2023-05-04T06:26:56.062Z,7.10
2023-05-04T06:27:56.372Z,7.00
2023-05-04T06:28:56.721Z,7.40
2023-05-04T06:29:57.058Z,7.50
2023-05-04T06:30:57.349Z,7.60
2023-05-04T06:31:57.663Z,7.40
2023-05-04T06:32:57.939Z,7.50
2023-05-04T06:33:58.114Z,7.60
2023-05-04T06:34:58.348Z,7.40
2023-05-04T06:35:58.636Z,8.70
2023-05-04T06:36:58.884Z,8.20
2023-05-04T06:37:59.168Z,7.50
2023-05-04T06:38:59.461Z,7.20
2023-05-04T06:39:59.758Z,7.20
2023-05-04T06:41:00.022Z,7.30
2023-05-04T06:42:00.371Z,7.10
2023-05-04T06:43:00.607Z,7.20
2023-05-04T06:44:00.899Z,7.10
2023-05-04T06:45:01.285Z,6.90
2023-05-04T06:46:01.674Z,7.00
2023-05-04T06:47:01.896Z,7.00
2023-05-04T06:48:02.173Z,7.00
2023-05-04T06:49:02.423Z,7.30
2023-05-04T06:50:02.839Z,7.60
2023-05-04T06:51:03.318Z,8.00
2023-05-04T06:52:03.168Z,7.80
2023-05-04T06:53:03.583Z,7.90
2023-05-04T06:54:03.854Z,8.30
2023-05-04T06:55:04.040Z,7.70
2023-05-04T06:56:04.436Z,7.70
2023-05-04T06:57:04.607Z,7.00
2023-05-04T06:58:04.917Z,6.90
2023-05-04T06:59:05.163Z,7.00
2023-05-04T07:00:05.795Z,6.70
2023-05-04T07:01:05.844Z,7.40
2023-05-04T07:02:05.955Z,7.80
2023-05-04T07:03:06.419Z,7.00
2023-05-04T07:04:06.673Z,6.60
2023-05-04T07:05:06.787Z,6.70
2023-05-04T07:06:07.688Z,6.80
2023-05-04T07:07:07.310Z,6.40
2023-05-04T07:08:07.598Z,6.20
2023-05-04T07:09:07.797Z,6.00
2023-05-04T07:10:08.131Z,6.10
2023-05-04T07:11:08.553Z,6.10
2023-05-04T07:12:08.808Z,7.60
2023-05-04T07:13:09.273Z,6.60
2023-05-04T07:14:10.560Z,6.10
2023-05-04T07:15:09.733Z,6.60
2023-05-04T07:16:09.929Z,6.00
2023-05-04T07:17:10.332Z,6.80
2023-05-04T07:18:10.595Z,6.30
2023-05-04T07:19:10.826Z,5.90
2023-05-04T07:20:11.114Z,5.90
2023-05-04T07:22:12.647Z,6.30
2023-05-04T07:23:11.928Z,5.50
2023-05-04T07:24:12.218Z,5.20
2023-05-04T07:25:12.395Z,5.70
2023-05-04T07:26:12.838Z,6.30
2023-05-04T07:27:13.020Z,8.20
2023-05-04T07:28:13.242Z,5.40
2023-05-04T07:29:13.642Z,6.60
2023-05-04T07:30:14.073Z,7.30
2023-05-04T07:31:14.133Z,6.30
2023-05-04T07:32:14.406Z,6.20
2023-05-04T07:33:14.620Z,5.50
2023-05-04T07:34:15.839Z,6.90
2023-05-04T07:35:15.234Z,6.10
2023-05-04T07:36:15.622Z,5.70
2023-05-04T07:37:16.058Z,6.10
2023-05-04T07:38:16.224Z,5.30
2023-05-04T07:39:16.430Z,5.70
2023-05-04T07:40:16.696Z,5.40
2023-05-04T07:41:16.908Z,5.50
2023-05-04T07:42:17.190Z,5.20
2023-05-04T07:43:17.510Z,6.00
2023-05-04T07:44:17.697Z,6.20
2023-05-04T07:45:17.972Z,6.10
2023-05-04T07:46:18.645Z,5.70
2023-05-04T07:47:18.451Z,5.50
2023-05-04T07:48:18.783Z,5.40
2023-05-04T07:49:19.156Z,5.90
2023-05-04T07:50:19.489Z,5.80
2023-05-04T07:51:19.669Z,6.00
2023-05-04T07:52:19.955Z,5.90
2023-05-04T07:53:20.220Z,6.20
2023-05-04T07:54:22.608Z,5.70
2023-05-04T07:55:20.975Z,5.70
2023-05-04T07:56:21.119Z,5.70
2023-05-04T07:57:21.350Z,6.00
2023-05-04T07:58:21.659Z,5.80
2023-05-04T07:59:21.981Z,6.20
2023-05-04T08:00:22.230Z,5.60
2023-05-04T08:01:24.089Z,6.00
2023-05-04T08:02:23.284Z,6.20
2023-05-04T08:03:23.041Z,5.70
2023-05-04T08:04:23.435Z,5.50
2023-05-04T08:05:23.663Z,5.70
2023-05-04T08:06:23.973Z,5.70
2023-05-04T08:07:24.266Z,5.60
2023-05-04T08:08:25.024Z,5.50
2023-05-04T08:09:24.859Z,5.80
2023-05-04T08:10:25.202Z,5.70
2023-05-04T08:11:25.381Z,5.90
2023-05-04T08:12:25.830Z,5.90
2023-05-04T08:13:26.038Z,5.80
2023-05-04T08:14:26.355Z,6.00
2023-05-04T08:15:26.769Z,5.80
2023-05-04T08:16:26.981Z,5.90
2023-05-04T08:17:27.368Z,5.80
2023-05-04T08:18:27.534Z,5.60
2023-05-04T08:19:27.798Z,5.90
2023-05-04T08:20:28.084Z,5.60
2023-05-04T08:21:28.356Z,5.50
2023-05-04T08:22:28.566Z,6.10
2023-05-04T08:23:28.918Z,5.70
2023-05-04T08:24:29.354Z,5.60
2023-05-04T08:25:29.437Z,5.80
2023-05-04T08:26:29.721Z,6.00
2023-05-04T08:27:29.976Z,5.80
2023-05-04T08:28:30.258Z,6.10
2023-05-04T08:29:30.585Z,5.80
2023-05-04T08:30:30.722Z,5.70
2023-05-04T08:31:31.161Z,6.00
2023-05-04T08:32:33.203Z,5.60
2023-05-04T08:33:31.629Z,6.40
2023-05-04T08:34:31.919Z,6.20
2023-05-04T08:35:32.216Z,5.60
2023-05-04T08:36:32.399Z,5.60
2023-05-04T08:37:32.663Z,5.50
2023-05-04T08:38:32.982Z,5.90
2023-05-04T08:39:33.245Z,5.30
2023-05-04T08:40:33.477Z,5.20
2023-05-04T08:41:33.767Z,6.50
2023-05-04T08:42:34.043Z,5.10
2023-05-04T08:43:34.378Z,5.60
2023-05-04T08:44:34.610Z,4.70
2023-05-04T08:45:34.853Z,5.00
2023-05-04T08:46:35.138Z,5.00
2023-05-04T08:47:35.414Z,5.00
2023-05-04T08:48:35.652Z,4.60
2023-05-04T08:49:35.909Z,3.90
2023-05-04T08:50:36.142Z,3.90
2023-05-04T08:51:36.498Z,3.70
2023-05-04T08:52:36.713Z,3.60
2023-05-04T08:53:37.017Z,3.70
2023-05-04T08:54:37.581Z,3.60
2023-05-04T08:55:37.647Z,3.50
2023-05-04T08:56:37.859Z,3.30
2023-05-04T08:57:38.134Z,3.40
2023-05-04T08:58:38.424Z,3.40
2023-05-04T08:59:38.702Z,3.50
2023-05-04T09:00:39.521Z,3.70
2023-05-04T09:01:39.300Z,3.50
2023-05-04T09:02:39.614Z,3.50
2023-05-04T09:03:39.890Z,3.40
2023-05-04T09:04:40.064Z,3.40
2023-05-04T09:05:40.448Z,3.30
2023-05-04T09:06:40.620Z,3.40
2023-05-04T09:07:40.964Z,3.50
2023-05-04T09:08:41.185Z,3.30
2023-05-04T09:09:41.632Z,3.40
2023-05-04T09:10:41.898Z,3.30
2023-05-04T09:11:42.100Z,3.30
2023-05-04T09:12:42.264Z,3.50
2023-05-04T09:13:42.671Z,3.50
2023-05-04T09:14:42.911Z,3.30
2023-05-04T09:15:43.222Z,3.40
2023-05-04T09:16:43.498Z,3.60
2023-05-04T09:17:57.080Z,3.40
2023-05-04T09:18:44.964Z,3.50
2023-05-04T09:19:44.249Z,3.30
2023-05-04T09:20:44.718Z,3.70
2023-05-04T09:21:44.911Z,3.80
2023-05-04T09:22:45.172Z,3.30
2023-05-04T09:23:45.463Z,3.40
2023-05-04T09:24:45.686Z,3.40
2023-05-04T09:25:47.031Z,3.50
2023-05-04T09:26:46.276Z,3.00
2023-05-04T09:27:47.438Z,3.00
2023-05-04T09:28:46.805Z,3.20
2023-05-04T09:29:47.173Z,3.30
2023-05-04T09:30:47.613Z,3.10
2023-05-04T09:31:47.769Z,3.30
2023-05-04T09:32:48.732Z,3.50
2023-05-04T09:33:48.335Z,2.90
2023-05-04T09:34:48.512Z,3.00
2023-05-04T09:35:48.858Z,3.10
2023-05-04T09:36:49.143Z,2.90
2023-05-04T09:37:49.361Z,3.30
2023-05-04T09:38:49.920Z,3.10
2023-05-04T09:39:49.966Z,3.00
2023-05-04T09:40:50.278Z,2.80
2023-05-04T09:41:50.662Z,3.10
2023-05-04T09:42:50.897Z,2.80
2023-05-04T09:43:51.269Z,2.90
2023-05-04T09:44:51.459Z,2.90
2023-05-04T09:45:51.898Z,2.80
2023-05-04T09:46:52.189Z,2.70
2023-05-04T09:47:52.503Z,2.70
2023-05-04T09:48:53.197Z,2.70
2023-05-04T09:49:53.022Z,2.60
2023-05-04T09:50:53.215Z,2.70
2023-05-04T09:51:53.552Z,3.00
2023-05-04T09:52:53.905Z,3.00
2023-05-04T09:53:54.149Z,2.80
2023-05-04T09:54:54.552Z,2.80
2023-05-04T09:56:03.034Z,2.40
2023-05-04T09:56:54.892Z,2.60
2023-05-04T09:57:55.111Z,2.60
2023-05-04T09:58:55.544Z,2.60
2023-05-04T09:59:55.773Z,2.90
2023-05-04T10:00:55.983Z,2.70
2023-05-04T10:02:00.308Z,2.90
2023-05-04T10:02:57.676Z,3.00
2023-05-04T10:03:56.917Z,2.80
2023-05-04T10:04:57.419Z,2.90
2023-05-04T10:05:57.497Z,3.00
2023-05-04T10:06:57.784Z,2.90
2023-05-04T10:07:57.912Z,3.10
2023-05-04T10:08:59.072Z,2.80
2023-05-04T10:09:59.067Z,3.00
2023-05-04T10:10:58.902Z,3.10
2023-05-04T10:12:00.581Z,2.90
2023-05-04T10:12:59.361Z,3.10
2023-05-04T10:13:59.692Z,3.00
2023-05-04T10:15:00.999Z,3.30
2023-05-04T10:16:00.287Z,3.00
2023-05-04T10:17:00.437Z,3.10
2023-05-04T10:18:01.054Z,3.10
2023-05-04T10:19:01.163Z,3.00
2023-05-04T10:20:01.373Z,3.30
2023-05-04T10:21:01.730Z,3.10
2023-05-04T10:22:01.914Z,3.10
2023-05-04T10:23:02.199Z,3.10
2023-05-04T10:24:02.415Z,3.30
2023-05-04T10:25:02.888Z,3.30
2023-05-04T10:26:03.088Z,3.50
2023-05-04T10:27:03.372Z,3.30
2023-05-04T10:28:03.613Z,3.60
2023-05-04T10:29:03.990Z,3.70
2023-05-04T10:30:04.206Z,3.40
2023-05-04T10:31:04.535Z,3.50
2023-05-04T10:32:04.837Z,5.00
2023-05-04T10:33:05.070Z,3.40
2023-05-04T10:34:05.294Z,4.80
2023-05-04T10:35:05.899Z,6.20
2023-05-04T10:36:05.820Z,3.70
2023-05-04T10:37:05.965Z,3.60
2023-05-04T10:38:06.704Z,3.70
2023-05-04T10:39:06.618Z,3.60
2023-05-04T10:40:08.060Z,3.70
2023-05-04T10:41:07.467Z,3.50
2023-05-04T10:42:07.582Z,3.50
2023-05-04T10:43:07.749Z,3.60
2023-05-04T10:44:08.089Z,3.40
2023-05-04T10:45:08.237Z,3.40
2023-05-04T10:46:08.743Z,3.30
2023-05-04T10:47:08.857Z,3.50
2023-05-04T10:48:09.176Z,3.50
2023-05-04T10:49:09.353Z,3.50
2023-05-04T10:50:09.798Z,3.80
2023-05-04T10:51:10.082Z,3.70
2023-05-04T10:52:10.373Z,3.70
2023-05-04T10:53:10.807Z,3.90
2023-05-04T10:54:10.830Z,3.90
2023-05-04T10:55:11.074Z,3.70
2023-05-04T10:56:11.463Z,3.60
2023-05-04T10:57:11.710Z,3.80
2023-05-04T10:58:12.341Z,3.70
2023-05-04T10:59:12.212Z,3.70
2023-05-04T11:00:12.568Z,3.60
2023-05-04T11:01:12.991Z,3.80
2023-05-04T11:02:13.255Z,3.50
2023-05-04T11:03:13.665Z,3.60
2023-05-04T11:04:13.891Z,3.40
2023-05-04T11:05:14.104Z,3.80
2023-05-04T11:06:14.348Z,4.00
2023-05-04T11:07:14.650Z,3.70
2023-05-04T11:08:14.871Z,3.50
2023-05-04T11:09:15.221Z,3.60
2023-05-04T11:10:16.710Z,3.90
2023-05-04T11:11:15.771Z,4.40
2023-05-04T11:12:16.121Z,3.80
2023-05-04T11:13:16.654Z,4.90
2023-05-04T11:14:16.744Z,3.60
2023-05-04T11:15:16.995Z,3.40
2023-05-04T11:16:17.289Z,3.50
2023-05-04T11:18:19.130Z,3.60
2023-05-04T11:19:18.148Z,3.60
2023-05-04T11:20:18.370Z,3.40
2023-05-04T11:21:18.601Z,3.60
2023-05-04T11:22:19.114Z,3.60
2023-05-04T11:23:19.199Z,3.40
2023-05-04T11:24:19.433Z,3.70
2023-05-04T11:25:19.638Z,3.60
2023-05-04T11:26:20.000Z,3.60
2023-05-04T11:27:20.162Z,3.80
2023-05-04T11:28:20.560Z,5.50
2023-05-04T11:29:20.802Z,5.70
2023-05-04T11:30:21.125Z,4.60
2023-05-04T11:31:21.463Z,4.30
2023-05-04T11:32:21.672Z,3.70
2023-05-04T11:33:21.958Z,3.90
2023-05-04T11:34:22.172Z,4.00
2023-05-04T11:35:22.425Z,3.90
2023-05-04T11:36:22.849Z,3.90
2023-05-04T11:37:22.950Z,3.70
2023-05-04T11:38:23.332Z,3.60
2023-05-04T11:39:23.553Z,3.80
2023-05-04T11:40:23.825Z,3.70
2023-05-04T11:41:24.138Z,4.00
2023-05-04T11:42:24.374Z,3.80
2023-05-04T11:43:24.659Z,3.60
2023-05-04T11:44:24.894Z,3.30
2023-05-04T11:45:25.288Z,3.30
2023-05-04T11:46:25.614Z,3.30
2023-05-04T11:47:25.807Z,3.70
2023-05-04T11:48:26.236Z,3.70
2023-05-04T11:49:26.517Z,3.90
2023-05-04T11:50:26.750Z,3.50
2023-05-04T11:51:27.019Z,3.60
2023-05-04T11:52:27.286Z,3.70
2023-05-04T11:53:27.524Z,3.50
2023-05-04T11:54:27.930Z,3.70
2023-05-04T11:55:28.151Z,3.50
2023-05-04T11:56:28.508Z,3.70
2023-05-04T11:57:28.752Z,7.50
2023-05-04T11:58:28.962Z,4.20
2023-05-04T11:59:29.298Z,8.50
2023-05-04T12:00:29.796Z,6.70
2023-05-04T12:01:30.578Z,3.80
2023-05-04T12:02:30.378Z,3.60
2023-05-04T12:03:43.904Z,3.60
2023-05-04T12:04:31.882Z,3.60
2023-05-04T12:05:31.156Z,3.80
2023-05-04T12:06:31.607Z,3.60
2023-05-04T12:07:31.748Z,3.30
2023-05-04T12:08:32.114Z,3.40
2023-05-04T12:09:32.388Z,3.30
2023-05-04T12:10:32.584Z,3.20
2023-05-04T12:11:33.108Z,3.20
2023-05-04T12:12:33.537Z,3.90
2023-05-04T12:13:33.434Z,3.50
2023-05-04T12:14:33.845Z,3.60
2023-05-04T12:15:34.053Z,3.90
2023-05-04T12:16:35.464Z,3.70
2023-05-04T12:17:35.014Z,3.60
2023-05-04T12:18:35.119Z,3.50
2023-05-04T12:19:35.302Z,3.60
2023-05-04T12:20:36.281Z,3.40
2023-05-04T12:21:36.178Z,3.40
2023-05-04T12:22:36.186Z,3.20
2023-05-04T12:23:36.826Z,3.40
2023-05-04T12:24:37.484Z,3.60
2023-05-04T12:25:47.375Z,3.50
2023-05-04T12:26:38.452Z,3.50
2023-05-04T12:27:38.502Z,3.40
2023-05-04T12:28:38.159Z,3.20
2023-05-04T12:29:38.570Z,3.40
2023-05-04T12:30:40.556Z,3.50
2023-05-04T12:31:39.405Z,3.40
2023-05-04T12:32:39.223Z,3.70
2023-05-04T12:33:39.449Z,3.60
2023-05-04T12:34:40.163Z,3.50
2023-05-04T12:35:39.918Z,3.30
2023-05-04T12:36:40.265Z,3.60
2023-05-04T12:37:40.728Z,3.50
2023-05-04T12:38:40.891Z,3.30
2023-05-04T12:39:41.230Z,3.00
2023-05-04T12:40:41.445Z,3.10
2023-05-04T12:41:41.701Z,3.20
2023-05-04T12:42:41.907Z,5.50
2023-05-04T12:43:42.288Z,3.80
2023-05-04T12:44:42.551Z,3.40
2023-05-04T12:45:42.894Z,3.60
2023-05-04T12:46:43.107Z,3.40
2023-05-04T12:47:43.351Z,3.10
2023-05-04T12:48:44.120Z,3.00
2023-05-04T12:49:43.936Z,3.20
2023-05-04T12:50:44.331Z,2.80
2023-05-04T12:51:44.638Z,3.10
2023-05-04T12:52:44.835Z,2.80
2023-05-04T12:53:45.042Z,3.10
2023-05-04T12:54:45.364Z,3.10
2023-05-04T12:55:45.879Z,3.30
2023-05-04T12:56:46.098Z,3.30
2023-05-04T12:57:46.302Z,3.10
2023-05-04T12:58:46.530Z,3.10
2023-05-04T12:59:46.858Z,3.30
2023-05-04T13:00:47.067Z,3.20
2023-05-04T13:01:47.527Z,3.10
2023-05-04T13:02:47.845Z,3.10
2023-05-04T13:03:47.981Z,3.10
2023-05-04T13:04:48.204Z,2.90
2023-05-04T13:05:49.435Z,2.90
2023-05-04T13:06:48.752Z,3.00
2023-05-04T13:07:48.936Z,3.00
2023-05-04T13:08:49.267Z,3.20
2023-05-04T13:09:49.489Z,3.60
2023-05-04T13:10:49.804Z,3.60
2023-05-04T13:11:50.028Z,3.10
2023-05-04T13:12:50.256Z,3.10
2023-05-04T13:13:50.639Z,3.20
2023-05-04T13:14:52.318Z,3.00
2023-05-04T13:15:51.380Z,3.20
2023-05-04T13:16:51.406Z,4.10
2023-05-04T13:17:51.715Z,3.60
2023-05-04T13:18:51.985Z,4.50
2023-05-04T13:19:52.263Z,3.00
2023-05-04T13:20:52.572Z,3.30
2023-05-04T13:21:52.779Z,3.20
2023-05-04T13:22:53.088Z,3.20
2023-05-04T13:23:53.300Z,3.10